Lewis, Kansas
Current Conditions -  °F | °C
As of 2:35 AM on Friday 24 Oct 2014 (Local Time) from KPTT Reporting Station
Haze Haze  
Wind Chill: 57°   Ceiling: Unl
Heat Index: 57°   Visibility: 5mi
Dew Point: 55°   Wind: 3mph
Humidity: 94%   Direction: 180°S
Pressure: 30.07"   Gusts: NA
Location:  37.94°N, 99.25°W
Report Text: KPTT 240735Z AUTO 18003KT 5SM BR CLR 14/13 A3007 RMK AO2
Loading
Personal Weather Stations






























Interactive Weather Map
Tropical Storm Tracking
New forecast layout! Learn more

10-Day Weather Forecast

Advertisements
Track Severe Weather on mobile